sensor_id;sensor_type;location;lat;lon;timestamp;P1;durP1;ratioP1;P2;durP2;ratioP2
70532;SDS011;58088;51.186;17.130;2023-02-01T00:00:49;1.80;;;0.20;;
70532;SDS011;58088;51.186;17.130;2023-02-01T00:03:15;3.40;;;0.60;;
70532;SDS011;58088;51.186;17.130;2023-02-01T00:05:44;1.70;;;0.20;;
70532;SDS011;58088;51.186;17.130;2023-02-01T00:08:10;2.40;;;0.40;;
70532;SDS011;58088;51.186;17.130;2023-02-01T00:10:36;1.70;;;0.30;;
70532;SDS011;58088;51.186;17.130;2023-02-01T00:13:03;2.90;;;0.20;;
70532;SDS011;58088;51.186;17.130;2023-02-01T00:15:29;2.10;;;0.30;;
70532;SDS011;58088;51.186;17.130;2023-02-01T00:17:55;4.20;;;0.20;;
70532;SDS011;58088;51.186;17.130;2023-02-01T00:20:21;1.00;;;0.20;;
70532;SDS011;58088;51.186;17.130;2023-02-01T00:22:47;0.80;;;0.30;;
70532;SDS011;58088;51.186;17.130;2023-02-01T00:25:14;2.50;;;0.20;;
70532;SDS011;58088;51.186;17.130;2023-02-01T00:27:40;2.70;;;0.20;;
70532;SDS011;58088;51.186;17.130;2023-02-01T00:30:07;2.80;;;0.40;;
70532;SDS011;58088;51.186;17.130;2023-02-01T00:32:35;1.40;;;0.20;;
70532;SDS011;58088;51.186;17.130;2023-02-01T00:35:01;3.00;;;0.20;;
70532;SDS011;58088;51.186;17.130;2023-02-01T00:37:27;7.30;;;0.80;;
70532;SDS011;58088;51.186;17.130;2023-02-01T00:39:53;4.50;;;0.30;;
70532;SDS011;58088;51.186;17.130;2023-02-01T00:42:21;3.60;;;0.40;;
70532;SDS011;58088;51.186;17.130;2023-02-01T00:44:47;1.00;;;0.20;;
70532;SDS011;58088;51.186;17.130;2023-02-01T00:47:14;3.80;;;0.60;;
70532;SDS011;58088;51.186;17.130;2023-02-01T00:49:40;4.10;;;0.50;;
70532;SDS011;58088;51.186;17.130;2023-02-01T00:52:06;2.00;;;0.40;;
70532;SDS011;58088;51.186;17.130;2023-02-01T00:54:32;4.20;;;0.50;;
70532;SDS011;58088;51.186;17.130;2023-02-01T00:56:59;1.20;;;0.20;;
70532;SDS011;58088;51.186;17.130;2023-02-01T00:59:25;4.40;;;0.30;;
70532;SDS011;58088;51.186;17.130;2023-02-01T01:01:51;2.50;;;0.20;;
70532;SDS011;58088;51.186;17.130;2023-02-01T01:04:17;2.10;;;0.40;;
70532;SDS011;58088;51.186;17.130;2023-02-01T01:06:44;4.70;;;0.70;;
70532;SDS011;58088;51.186;17.130;2023-02-01T01:09:10;4.60;;;0.50;;
70532;SDS011;58088;51.186;17.130;2023-02-01T01:11:37;3.90;;;0.80;;
70532;SDS011;58088;51.186;17.130;2023-02-01T01:14:06;5.20;;;0.40;;
70532;SDS011;58088;51.186;17.130;2023-02-01T01:16:35;1.90;;;0.40;;
70532;SDS011;58088;51.186;17.130;2023-02-01T01:19:01;7.70;;;0.70;;
70532;SDS011;58088;51.186;17.130;2023-02-01T01:21:29;3.90;;;0.70;;
70532;SDS011;58088;51.186;17.130;2023-02-01T01:23:56;4.40;;;0.60;;
70532;SDS011;58088;51.186;17.130;2023-02-01T01:26:25;3.70;;;0.50;;
70532;SDS011;58088;51.186;17.130;2023-02-01T01:28:55;2.90;;;0.60;;
70532;SDS011;58088;51.186;17.130;2023-02-01T01:31:24;3.30;;;0.60;;
70532;SDS011;58088;51.186;17.130;2023-02-01T01:33:52;3.40;;;0.70;;
70532;SDS011;58088;51.186;17.130;2023-02-01T01:36:20;6.30;;;0.70;;
70532;SDS011;58088;51.186;17.130;2023-02-01T01:38:47;3.60;;;0.90;;
70532;SDS011;58088;51.186;17.130;2023-02-01T01:41:23;7.30;;;1.50;;
70532;SDS011;58088;51.186;17.130;2023-02-01T01:44:03;3.60;;;0.60;;
70532;SDS011;58088;51.186;17.130;2023-02-01T01:46:34;2.10;;;0.20;;
70532;SDS011;58088;51.186;17.130;2023-02-01T01:49:05;5.50;;;0.80;;
70532;SDS011;58088;51.186;17.130;2023-02-01T01:51:40;2.20;;;0.40;;
70532;SDS011;58088;51.186;17.130;2023-02-01T01:54:26;2.90;;;0.30;;
70532;SDS011;58088;51.186;17.130;2023-02-01T01:57:01;1.80;;;0.30;;
70532;SDS011;58088;51.186;17.130;2023-02-01T01:59:36;1.60;;;0.30;;
70532;SDS011;58088;51.186;17.130;2023-02-01T02:02:21;3.00;;;0.30;;
70532;SDS011;58088;51.186;17.130;2023-02-01T02:05:06;1.00;;;0.20;;
70532;SDS011;58088;51.186;17.130;2023-02-01T02:07:37;1.30;;;0.30;;
70532;SDS011;58088;51.186;17.130;2023-02-01T02:10:08;1.30;;;0.30;;
70532;SDS011;58088;51.186;17.130;2023-02-01T02:12:42;1.30;;;0.40;;
70532;SDS011;58088;51.186;17.130;2023-02-01T02:15:12;2.50;;;0.50;;
70532;SDS011;58088;51.186;17.130;2023-02-01T02:26:34;2.30;;;0.50;;
70532;SDS011;58088;51.186;17.130;2023-02-01T02:36:17;4.70;;;0.70;;
70532;SDS011;58088;51.186;17.130;2023-02-01T02:39:12;2.40;;;1.00;;
70532;SDS011;58088;51.186;17.130;2023-02-01T02:44:46;3.80;;;0.70;;
70532;SDS011;58088;51.186;17.130;2023-02-01T02:50:53;3.90;;;0.50;;
70532;SDS011;58088;51.186;17.130;2023-02-01T02:56:49;10.70;;;1.10;;
70532;SDS011;58088;51.186;17.130;2023-02-01T02:59:38;4.30;;;0.50;;
70532;SDS011;58088;51.186;17.130;2023-02-01T03:02:26;6.50;;;0.90;;
70532;SDS011;58088;51.186;17.130;2023-02-01T03:05:12;4.50;;;0.70;;
70532;SDS011;58088;51.186;17.130;2023-02-01T03:07:55;7.00;;;1.60;;
70532;SDS011;58088;51.186;17.130;2023-02-01T03:13:37;2.90;;;0.80;;
70532;SDS011;58088;51.186;17.130;2023-02-01T03:16:33;2.00;;;0.70;;
70532;SDS011;58088;51.186;17.130;2023-02-01T03:19:24;6.10;;;0.70;;
70532;SDS011;58088;51.186;17.130;2023-02-01T03:21:57;4.10;;;0.60;;
70532;SDS011;58088;51.186;17.130;2023-02-01T03:24:34;9.90;;;1.00;;
70532;SDS011;58088;51.186;17.130;2023-02-01T03:27:34;6.90;;;1.10;;
70532;SDS011;58088;51.186;17.130;2023-02-01T03:32:35;6.30;;;0.80;;
70532;SDS011;58088;51.186;17.130;2023-02-01T03:38:12;8.60;;;1.20;;
70532;SDS011;58088;51.186;17.130;2023-02-01T03:44:01;5.90;;;0.70;;
70532;SDS011;58088;51.186;17.130;2023-02-01T03:46:39;7.60;;;0.90;;
70532;SDS011;58088;51.186;17.130;2023-02-01T03:49:18;5.20;;;0.70;;
70532;SDS011;58088;51.186;17.130;2023-02-01T03:51:50;7.90;;;0.90;;
70532;SDS011;58088;51.186;17.130;2023-02-01T03:54:18;11.90;;;0.90;;
70532;SDS011;58088;51.186;17.130;2023-02-01T03:56:47;8.10;;;1.00;;
70532;SDS011;58088;51.186;17.130;2023-02-01T03:59:14;4.60;;;1.00;;
70532;SDS011;58088;51.186;17.130;2023-02-01T04:01:41;9.40;;;1.30;;
70532;SDS011;58088;51.186;17.130;2023-02-01T04:04:08;7.90;;;1.30;;
70532;SDS011;58088;51.186;17.130;2023-02-01T04:06:35;8.80;;;1.70;;
70532;SDS011;58088;51.186;17.130;2023-02-01T04:09:02;9.10;;;1.20;;
70532;SDS011;58088;51.186;17.130;2023-02-01T04:11:28;4.40;;;0.90;;
70532;SDS011;58088;51.186;17.130;2023-02-01T04:13:54;6.70;;;0.90;;
70532;SDS011;58088;51.186;17.130;2023-02-01T04:16:20;4.90;;;0.80;;
70532;SDS011;58088;51.186;17.130;2023-02-01T04:18:47;10.10;;;1.60;;
70532;SDS011;58088;51.186;17.130;2023-02-01T04:21:13;9.20;;;1.10;;
70532;SDS011;58088;51.186;17.130;2023-02-01T04:23:40;10.00;;;0.80;;
70532;SDS011;58088;51.186;17.130;2023-02-01T04:26:06;4.30;;;0.60;;
70532;SDS011;58088;51.186;17.130;2023-02-01T04:28:32;8.90;;;1.00;;
70532;SDS011;58088;51.186;17.130;2023-02-01T04:30:59;8.20;;;1.20;;
70532;SDS011;58088;51.186;17.130;2023-02-01T04:33:25;6.50;;;1.20;;
70532;SDS011;58088;51.186;17.130;2023-02-01T04:35:51;8.70;;;1.60;;
70532;SDS011;58088;51.186;17.130;2023-02-01T04:38:17;10.80;;;2.00;;
70532;SDS011;58088;51.186;17.130;2023-02-01T04:40:46;6.30;;;1.20;;
70532;SDS011;58088;51.186;17.130;2023-02-01T04:43:14;7.20;;;1.20;;
70532;SDS011;58088;51.186;17.130;2023-02-01T04:45:41;7.10;;;0.90;;
70532;SDS011;58088;51.186;17.130;2023-02-01T04:48:07;11.30;;;1.20;;
70532;SDS011;58088;51.186;17.130;2023-02-01T04:50:35;5.90;;;0.80;;
70532;SDS011;58088;51.186;17.130;2023-02-01T04:53:01;6.40;;;0.80;;
70532;SDS011;58088;51.186;17.130;2023-02-01T04:55:27;6.80;;;1.60;;
70532;SDS011;58088;51.186;17.130;2023-02-01T04:57:54;7.90;;;1.20;;
70532;SDS011;58088;51.186;17.130;2023-02-01T05:00:21;6.90;;;0.90;;
70532;SDS011;58088;51.186;17.130;2023-02-01T05:02:47;6.20;;;1.20;;
70532;SDS011;58088;51.186;17.130;2023-02-01T05:05:13;9.00;;;1.70;;
70532;SDS011;58088;51.186;17.130;2023-02-01T05:07:40;3.90;;;0.80;;
70532;SDS011;58088;51.186;17.130;2023-02-01T05:10:06;7.90;;;0.90;;
70532;SDS011;58088;51.186;17.130;2023-02-01T05:12:33;9.50;;;1.30;;
70532;SDS011;58088;51.186;17.130;2023-02-01T05:15:18;6.00;;;1.30;;
70532;SDS011;58088;51.186;17.130;2023-02-01T05:17:45;7.10;;;1.20;;
70532;SDS011;58088;51.186;17.130;2023-02-01T05:20:11;9.00;;;1.30;;
70532;SDS011;58088;51.186;17.130;2023-02-01T05:22:37;8.30;;;1.70;;
70532;SDS011;58088;51.186;17.130;2023-02-01T05:25:04;5.20;;;1.20;;
70532;SDS011;58088;51.186;17.130;2023-02-01T05:27:31;7.80;;;1.30;;
70532;SDS011;58088;51.186;17.130;2023-02-01T05:29:57;6.40;;;1.40;;
70532;SDS011;58088;51.186;17.130;2023-02-01T05:32:23;10.10;;;1.70;;
70532;SDS011;58088;51.186;17.130;2023-02-01T05:34:50;9.90;;;1.60;;
70532;SDS011;58088;51.186;17.130;2023-02-01T05:37:16;5.10;;;0.90;;
70532;SDS011;58088;51.186;17.130;2023-02-01T05:39:43;9.10;;;1.40;;
70532;SDS011;58088;51.186;17.130;2023-02-01T05:42:09;8.10;;;1.00;;
70532;SDS011;58088;51.186;17.130;2023-02-01T05:44:35;5.80;;;1.10;;
70532;SDS011;58088;51.186;17.130;2023-02-01T05:47:02;5.60;;;1.10;;
70532;SDS011;58088;51.186;17.130;2023-02-01T05:49:28;9.50;;;1.60;;
70532;SDS011;58088;51.186;17.130;2023-02-01T05:51:54;3.50;;;0.90;;
70532;SDS011;58088;51.186;17.130;2023-02-01T05:54:20;7.80;;;1.40;;
70532;SDS011;58088;51.186;17.130;2023-02-01T05:56:46;7.70;;;1.00;;
70532;SDS011;58088;51.186;17.130;2023-02-01T05:59:12;6.20;;;1.00;;
70532;SDS011;58088;51.186;17.130;2023-02-01T06:01:39;9.00;;;1.40;;
70532;SDS011;58088;51.186;17.130;2023-02-01T06:04:05;9.40;;;1.50;;
70532;SDS011;58088;51.186;17.130;2023-02-01T06:06:31;7.80;;;1.10;;
70532;SDS011;58088;51.186;17.130;2023-02-01T06:08:57;5.00;;;0.80;;
70532;SDS011;58088;51.186;17.130;2023-02-01T06:11:24;6.30;;;1.10;;
70532;SDS011;58088;51.186;17.130;2023-02-01T06:13:50;8.50;;;1.20;;
70532;SDS011;58088;51.186;17.130;2023-02-01T06:16:16;4.70;;;1.00;;
70532;SDS011;58088;51.186;17.130;2023-02-01T06:18:43;6.90;;;1.50;;
70532;SDS011;58088;51.186;17.130;2023-02-01T06:21:09;10.30;;;1.60;;
70532;SDS011;58088;51.186;17.130;2023-02-01T06:23:35;5.90;;;1.00;;
70532;SDS011;58088;51.186;17.130;2023-02-01T06:26:04;6.00;;;1.30;;
70532;SDS011;58088;51.186;17.130;2023-02-01T06:28:33;7.00;;;1.30;;
70532;SDS011;58088;51.186;17.130;2023-02-01T06:31:06;6.00;;;0.70;;
70532;SDS011;58088;51.186;17.130;2023-02-01T06:33:33;5.00;;;0.80;;
70532;SDS011;58088;51.186;17.130;2023-02-01T06:36:02;6.10;;;1.20;;
70532;SDS011;58088;51.186;17.130;2023-02-01T06:38:31;7.90;;;1.30;;
70532;SDS011;58088;51.186;17.130;2023-02-01T06:40:58;5.70;;;0.90;;
70532;SDS011;58088;51.186;17.130;2023-02-01T06:43:26;8.50;;;1.30;;
70532;SDS011;58088;51.186;17.130;2023-02-01T06:45:58;7.60;;;1.10;;
70532;SDS011;58088;51.186;17.130;2023-02-01T06:48:29;11.00;;;1.00;;
70532;SDS011;58088;51.186;17.130;2023-02-01T06:50:56;8.60;;;1.60;;
70532;SDS011;58088;51.186;17.130;2023-02-01T06:53:23;10.10;;;0.90;;
70532;SDS011;58088;51.186;17.130;2023-02-01T06:56:08;6.70;;;1.00;;
70532;SDS011;58088;51.186;17.130;2023-02-01T06:58:35;8.80;;;1.50;;
70532;SDS011;58088;51.186;17.130;2023-02-01T07:01:06;13.00;;;1.90;;
70532;SDS011;58088;51.186;17.130;2023-02-01T07:03:33;11.00;;;1.40;;
70532;SDS011;58088;51.186;17.130;2023-02-01T07:06:00;3.90;;;0.90;;
70532;SDS011;58088;51.186;17.130;2023-02-01T07:08:27;5.70;;;1.30;;
70532;SDS011;58088;51.186;17.130;2023-02-01T07:10:54;5.60;;;1.10;;
70532;SDS011;58088;51.186;17.130;2023-02-01T07:13:20;9.30;;;1.70;;
70532;SDS011;58088;51.186;17.130;2023-02-01T07:15:46;5.30;;;0.90;;
70532;SDS011;58088;51.186;17.130;2023-02-01T07:18:16;9.70;;;1.80;;
70532;SDS011;58088;51.186;17.130;2023-02-01T07:20:42;7.50;;;1.30;;
70532;SDS011;58088;51.186;17.130;2023-02-01T07:23:11;6.20;;;1.10;;
70532;SDS011;58088;51.186;17.130;2023-02-01T07:25:37;6.00;;;1.20;;
70532;SDS011;58088;51.186;17.130;2023-02-01T07:28:04;5.00;;;1.10;;
70532;SDS011;58088;51.186;17.130;2023-02-01T07:30:30;4.90;;;1.10;;
70532;SDS011;58088;51.186;17.130;2023-02-01T07:32:56;9.90;;;1.50;;
70532;SDS011;58088;51.186;17.130;2023-02-01T07:35:27;8.70;;;1.20;;
70532;SDS011;58088;51.186;17.130;2023-02-01T07:37:57;6.80;;;1.20;;
70532;SDS011;58088;51.186;17.130;2023-02-01T07:40:24;5.80;;;1.00;;
70532;SDS011;58088;51.186;17.130;2023-02-01T07:42:55;8.10;;;1.10;;
70532;SDS011;58088;51.186;17.130;2023-02-01T07:45:22;12.10;;;1.30;;
70532;SDS011;58088;51.186;17.130;2023-02-01T07:47:48;7.80;;;1.30;;
70532;SDS011;58088;51.186;17.130;2023-02-01T07:50:17;5.40;;;1.20;;
70532;SDS011;58088;51.186;17.130;2023-02-01T07:52:43;6.90;;;1.00;;
70532;SDS011;58088;51.186;17.130;2023-02-01T07:55:09;7.90;;;1.50;;
70532;SDS011;58088;51.186;17.130;2023-02-01T07:57:36;7.80;;;1.40;;
70532;SDS011;58088;51.186;17.130;2023-02-01T08:00:03;13.80;;;1.70;;
70532;SDS011;58088;51.186;17.130;2023-02-01T08:02:49;12.10;;;1.40;;
70532;SDS011;58088;51.186;17.130;2023-02-01T08:05:16;6.30;;;1.50;;
70532;SDS011;58088;51.186;17.130;2023-02-01T08:07:43;8.20;;;1.50;;
70532;SDS011;58088;51.186;17.130;2023-02-01T08:10:10;6.60;;;1.20;;
70532;SDS011;58088;51.186;17.130;2023-02-01T08:12:37;8.40;;;1.20;;
70532;SDS011;58088;51.186;17.130;2023-02-01T08:15:05;10.90;;;1.50;;
70532;SDS011;58088;51.186;17.130;2023-02-01T08:17:32;6.10;;;1.30;;
70532;SDS011;58088;51.186;17.130;2023-02-01T08:19:59;7.10;;;1.60;;
70532;SDS011;58088;51.186;17.130;2023-02-01T08:22:25;11.30;;;1.50;;
70532;SDS011;58088;51.186;17.130;2023-02-01T08:24:52;8.30;;;1.60;;
70532;SDS011;58088;51.186;17.130;2023-02-01T08:27:27;4.30;;;0.80;;
70532;SDS011;58088;51.186;17.130;2023-02-01T08:29:53;5.00;;;1.00;;
70532;SDS011;58088;51.186;17.130;2023-02-01T08:32:20;5.40;;;1.40;;
70532;SDS011;58088;51.186;17.130;2023-02-01T08:34:46;9.30;;;1.20;;
70532;SDS011;58088;51.186;17.130;2023-02-01T08:37:12;7.60;;;1.60;;
70532;SDS011;58088;51.186;17.130;2023-02-01T08:39:38;8.70;;;1.60;;
70532;SDS011;58088;51.186;17.130;2023-02-01T08:42:05;6.90;;;1.30;;
70532;SDS011;58088;51.186;17.130;2023-02-01T08:44:53;6.30;;;1.60;;
70532;SDS011;58088;51.186;17.130;2023-02-01T08:47:19;6.30;;;1.40;;
70532;SDS011;58088;51.186;17.130;2023-02-01T08:49:46;8.00;;;1.10;;
70532;SDS011;58088;51.186;17.130;2023-02-01T08:52:13;5.30;;;1.50;;
70532;SDS011;58088;51.186;17.130;2023-02-01T08:54:40;7.70;;;1.50;;
70532;SDS011;58088;51.186;17.130;2023-02-01T08:57:07;10.80;;;1.70;;
70532;SDS011;58088;51.186;17.130;2023-02-01T08:59:35;7.40;;;1.40;;
70532;SDS011;58088;51.186;17.130;2023-02-01T09:02:02;7.30;;;1.20;;
70532;SDS011;58088;51.186;17.130;2023-02-01T09:04:28;8.10;;;1.30;;
70532;SDS011;58088;51.186;17.130;2023-02-01T09:06:54;5.90;;;1.10;;
70532;SDS011;58088;51.186;17.130;2023-02-01T09:09:23;7.10;;;0.90;;
70532;SDS011;58088;51.186;17.130;2023-02-01T09:11:50;8.60;;;1.20;;
70532;SDS011;58088;51.186;17.130;2023-02-01T09:14:16;8.00;;;1.20;;
70532;SDS011;58088;51.186;17.130;2023-02-01T09:16:43;6.50;;;1.30;;
70532;SDS011;58088;51.186;17.130;2023-02-01T09:19:09;7.40;;;1.10;;
70532;SDS011;58088;51.186;17.130;2023-02-01T09:21:36;7.40;;;1.70;;
70532;SDS011;58088;51.186;17.130;2023-02-01T09:24:02;7.50;;;1.80;;
70532;SDS011;58088;51.186;17.130;2023-02-01T09:26:29;5.60;;;1.40;;
70532;SDS011;58088;51.186;17.130;2023-02-01T09:28:56;9.70;;;1.40;;
70532;SDS011;58088;51.186;17.130;2023-02-01T09:31:22;7.70;;;1.60;;
70532;SDS011;58088;51.186;17.130;2023-02-01T09:33:49;11.00;;;2.10;;
70532;SDS011;58088;51.186;17.130;2023-02-01T09:36:15;11.30;;;1.70;;
70532;SDS011;58088;51.186;17.130;2023-02-01T09:38:41;7.00;;;1.60;;
70532;SDS011;58088;51.186;17.130;2023-02-01T09:44:16;5.20;;;1.50;;
70532;SDS011;58088;51.186;17.130;2023-02-01T09:46:45;8.00;;;1.70;;
70532;SDS011;58088;51.186;17.130;2023-02-01T09:49:17;6.20;;;1.80;;
70532;SDS011;58088;51.186;17.130;2023-02-01T09:51:49;6.60;;;1.60;;
70532;SDS011;58088;51.186;17.130;2023-02-01T09:54:22;5.30;;;1.30;;
70532;SDS011;58088;51.186;17.130;2023-02-01T09:56:59;3.80;;;1.00;;
70532;SDS011;58088;51.186;17.130;2023-02-01T09:59:38;5.90;;;1.10;;
70532;SDS011;58088;51.186;17.130;2023-02-01T10:02:39;5.20;;;1.20;;
70532;SDS011;58088;51.186;17.130;2023-02-01T10:05:10;3.90;;;0.80;;
70532;SDS011;58088;51.186;17.130;2023-02-01T10:10:40;8.50;;;1.50;;
70532;SDS011;58088;51.186;17.130;2023-02-01T10:16:27;8.10;;;1.40;;
70532;SDS011;58088;51.186;17.130;2023-02-01T10:19:31;3.90;;;1.10;;
70532;SDS011;58088;51.186;17.130;2023-02-01T10:22:41;4.20;;;0.90;;
70532;SDS011;58088;51.186;17.130;2023-02-01T10:25:21;4.80;;;1.30;;
70532;SDS011;58088;51.186;17.130;2023-02-01T10:27:53;6.10;;;1.30;;
70532;SDS011;58088;51.186;17.130;2023-02-01T10:30:23;5.00;;;1.60;;
70532;SDS011;58088;51.186;17.130;2023-02-01T10:33:24;7.40;;;1.20;;
70532;SDS011;58088;51.186;17.130;2023-02-01T10:36:04;2.60;;;0.80;;
70532;SDS011;58088;51.186;17.130;2023-02-01T10:39:11;6.80;;;1.60;;
70532;SDS011;58088;51.186;17.130;2023-02-01T10:41:41;5.30;;;1.10;;
70532;SDS011;58088;51.186;17.130;2023-02-01T10:44:14;4.50;;;0.90;;
70532;SDS011;58088;51.186;17.130;2023-02-01T10:46:43;5.70;;;1.10;;
70532;SDS011;58088;51.186;17.130;2023-02-01T10:49:16;6.10;;;1.30;;
70532;SDS011;58088;51.186;17.130;2023-02-01T10:54:40;8.20;;;1.50;;
70532;SDS011;58088;51.186;17.130;2023-02-01T10:57:26;5.50;;;1.50;;
70532;SDS011;58088;51.186;17.130;2023-02-01T10:59:55;7.20;;;1.90;;
70532;SDS011;58088;51.186;17.130;2023-02-01T11:05:02;7.80;;;1.60;;
70532;SDS011;58088;51.186;17.130;2023-02-01T11:07:39;4.90;;;1.10;;
70532;SDS011;58088;51.186;17.130;2023-02-01T11:10:39;4.80;;;1.30;;
70532;SDS011;58088;51.186;17.130;2023-02-01T11:13:14;6.20;;;1.40;;
70532;SDS011;58088;51.186;17.130;2023-02-01T11:15:46;5.50;;;1.30;;
70532;SDS011;58088;51.186;17.130;2023-02-01T11:18:26;6.30;;;1.60;;
70532;SDS011;58088;51.186;17.130;2023-02-01T11:20:55;6.30;;;1.20;;
70532;SDS011;58088;51.186;17.130;2023-02-01T11:23:26;8.90;;;1.70;;
70532;SDS011;58088;51.186;17.130;2023-02-01T11:25:57;6.30;;;1.10;;
70532;SDS011;58088;51.186;17.130;2023-02-01T11:28:30;6.30;;;1.50;;
70532;SDS011;58088;51.186;17.130;2023-02-01T11:31:03;6.00;;;1.60;;
70532;SDS011;58088;51.186;17.130;2023-02-01T11:33:35;4.50;;;1.10;;
70532;SDS011;58088;51.186;17.130;2023-02-01T11:36:14;5.20;;;1.20;;
70532;SDS011;58088;51.186;17.130;2023-02-01T11:38:54;5.80;;;1.40;;
70532;SDS011;58088;51.186;17.130;2023-02-01T11:44:47;7.00;;;1.90;;
70532;SDS011;58088;51.186;17.130;2023-02-01T11:47:38;6.10;;;1.60;;
70532;SDS011;58088;51.186;17.130;2023-02-01T11:50:15;4.50;;;1.30;;
70532;SDS011;58088;51.186;17.130;2023-02-01T11:56:01;3.50;;;1.60;;
70532;SDS011;58088;51.186;17.130;2023-02-01T12:04:24;4.40;;;1.10;;
70532;SDS011;58088;51.186;17.130;2023-02-01T12:13:14;6.40;;;0.90;;
70532;SDS011;58088;51.186;17.130;2023-02-01T12:29:34;3.60;;;1.10;;
70532;SDS011;58088;51.186;17.130;2023-02-01T12:32:24;3.90;;;1.00;;
70532;SDS011;58088;51.186;17.130;2023-02-01T12:35:33;4.30;;;1.20;;
70532;SDS011;58088;51.186;17.130;2023-02-01T12:41:45;2.70;;;1.10;;
70532;SDS011;58088;51.186;17.130;2023-02-01T12:47:22;7.00;;;1.60;;
70532;SDS011;58088;51.186;17.130;2023-02-01T12:50:20;4.60;;;1.10;;
70532;SDS011;58088;51.186;17.130;2023-02-01T12:52:53;3.00;;;1.10;;
70532;SDS011;58088;51.186;17.130;2023-02-01T12:55:32;4.00;;;1.50;;
70532;SDS011;58088;51.186;17.130;2023-02-01T12:58:22;2.20;;;0.80;;
70532;SDS011;58088;51.186;17.130;2023-02-01T13:07:07;3.70;;;1.00;;
70532;SDS011;58088;51.186;17.130;2023-02-01T13:12:33;3.30;;;1.00;;
70532;SDS011;58088;51.186;17.130;2023-02-01T13:15:17;5.00;;;1.50;;
70532;SDS011;58088;51.186;17.130;2023-02-01T13:17:52;3.70;;;0.80;;
70532;SDS011;58088;51.186;17.130;2023-02-01T13:20:36;2.20;;;0.90;;
70532;SDS011;58088;51.186;17.130;2023-02-01T13:23:24;3.80;;;1.20;;
70532;SDS011;58088;51.186;17.130;2023-02-01T13:25:54;1.90;;;0.70;;
70532;SDS011;58088;51.186;17.130;2023-02-01T13:31:34;3.50;;;0.80;;
70532;SDS011;58088;51.186;17.130;2023-02-01T13:40:40;4.90;;;1.20;;
70532;SDS011;58088;51.186;17.130;2023-02-01T13:43:14;4.70;;;0.90;;
70532;SDS011;58088;51.186;17.130;2023-02-01T13:45:49;4.40;;;0.90;;
70532;SDS011;58088;51.186;17.130;2023-02-01T13:48:26;3.00;;;0.80;;
70532;SDS011;58088;51.186;17.130;2023-02-01T13:50:57;2.40;;;0.90;;
70532;SDS011;58088;51.186;17.130;2023-02-01T13:56:07;2.30;;;0.70;;
70532;SDS011;58088;51.186;17.130;2023-02-01T13:58:41;3.20;;;1.00;;
70532;SDS011;58088;51.186;17.130;2023-02-01T14:03:49;6.10;;;1.40;;
70532;SDS011;58088;51.186;17.130;2023-02-01T14:15:35;4.40;;;0.70;;
70532;SDS011;58088;51.186;17.130;2023-02-01T14:24:04;2.40;;;0.50;;
70532;SDS011;58088;51.186;17.130;2023-02-01T14:26:48;5.90;;;0.90;;
70532;SDS011;58088;51.186;17.130;2023-02-01T14:29:36;3.20;;;0.60;;
70532;SDS011;58088;51.186;17.130;2023-02-01T14:32:22;7.60;;;1.20;;
70532;SDS011;58088;51.186;17.130;2023-02-01T14:34:56;7.30;;;0.70;;
70532;SDS011;58088;51.186;17.130;2023-02-01T14:37:34;3.50;;;0.90;;
70532;SDS011;58088;51.186;17.130;2023-02-01T14:40:19;1.20;;;0.40;;
70532;SDS011;58088;51.186;17.130;2023-02-01T14:42:52;4.10;;;0.90;;
70532;SDS011;58088;51.186;17.130;2023-02-01T14:47:52;1.50;;;0.50;;
70532;SDS011;58088;51.186;17.130;2023-02-01T14:50:42;2.90;;;0.70;;
70532;SDS011;58088;51.186;17.130;2023-02-01T14:55:43;3.80;;;0.80;;
70532;SDS011;58088;51.186;17.130;2023-02-01T14:58:19;6.20;;;1.00;;
70532;SDS011;58088;51.186;17.130;2023-02-01T15:00:59;3.60;;;0.90;;
70532;SDS011;58088;51.186;17.130;2023-02-01T15:03:47;2.10;;;0.70;;
70532;SDS011;58088;51.186;17.130;2023-02-01T15:06:52;4.30;;;1.00;;
70532;SDS011;58088;51.186;17.130;2023-02-01T15:09:39;4.10;;;1.00;;
70532;SDS011;58088;51.186;17.130;2023-02-01T15:14:44;5.40;;;1.40;;
70532;SDS011;58088;51.186;17.130;2023-02-01T15:17:19;6.60;;;1.60;;
70532;SDS011;58088;51.186;17.130;2023-02-01T15:19:59;5.60;;;1.40;;
70532;SDS011;58088;51.186;17.130;2023-02-01T15:22:30;4.80;;;1.00;;
70532;SDS011;58088;51.186;17.130;2023-02-01T15:24:58;7.20;;;1.40;;
70532;SDS011;58088;51.186;17.130;2023-02-01T15:27:27;5.80;;;1.40;;
70532;SDS011;58088;51.186;17.130;2023-02-01T15:29:54;4.60;;;1.10;;
70532;SDS011;58088;51.186;17.130;2023-02-01T15:32:32;4.00;;;1.00;;
70532;SDS011;58088;51.186;17.130;2023-02-01T15:35:01;7.70;;;1.60;;
70532;SDS011;58088;51.186;17.130;2023-02-01T15:37:28;7.30;;;1.30;;
70532;SDS011;58088;51.186;17.130;2023-02-01T15:42:38;5.80;;;1.80;;
70532;SDS011;58088;51.186;17.130;2023-02-01T15:45:20;3.80;;;0.90;;
70532;SDS011;58088;51.186;17.130;2023-02-01T15:47:50;6.30;;;1.80;;
70532;SDS011;58088;51.186;17.130;2023-02-01T15:50:19;6.20;;;1.50;;
70532;SDS011;58088;51.186;17.130;2023-02-01T15:52:48;7.50;;;1.80;;
70532;SDS011;58088;51.186;17.130;2023-02-01T15:55:39;5.90;;;1.10;;
70532;SDS011;58088;51.186;17.130;2023-02-01T15:58:14;3.30;;;1.10;;
70532;SDS011;58088;51.186;17.130;2023-02-01T16:00:47;7.80;;;1.30;;
70532;SDS011;58088;51.186;17.130;2023-02-01T16:03:42;5.60;;;1.40;;
70532;SDS011;58088;51.186;17.130;2023-02-01T16:06:26;5.50;;;1.10;;
70532;SDS011;58088;51.186;17.130;2023-02-01T16:09:05;3.50;;;0.80;;
70532;SDS011;58088;51.186;17.130;2023-02-01T16:11:52;7.60;;;1.90;;
70532;SDS011;58088;51.186;17.130;2023-02-01T16:14:22;6.10;;;1.10;;
70532;SDS011;58088;51.186;17.130;2023-02-01T16:16:49;6.90;;;1.40;;
70532;SDS011;58088;51.186;17.130;2023-02-01T16:19:16;3.00;;;0.80;;
70532;SDS011;58088;51.186;17.130;2023-02-01T16:21:42;4.20;;;1.30;;
70532;SDS011;58088;51.186;17.130;2023-02-01T16:24:09;5.70;;;1.40;;
70532;SDS011;58088;51.186;17.130;2023-02-01T16:26:35;4.30;;;1.30;;
70532;SDS011;58088;51.186;17.130;2023-02-01T16:29:04;6.70;;;1.60;;
70532;SDS011;58088;51.186;17.130;2023-02-01T16:31:38;6.30;;;1.40;;
70532;SDS011;58088;51.186;17.130;2023-02-01T16:34:13;6.30;;;1.40;;
70532;SDS011;58088;51.186;17.130;2023-02-01T16:36:47;6.90;;;1.20;;
70532;SDS011;58088;51.186;17.130;2023-02-01T16:39:19;4.30;;;1.10;;
70532;SDS011;58088;51.186;17.130;2023-02-01T16:41:47;7.20;;;1.40;;
70532;SDS011;58088;51.186;17.130;2023-02-01T16:44:14;6.00;;;1.30;;
70532;SDS011;58088;51.186;17.130;2023-02-01T16:46:43;5.00;;;1.20;;
70532;SDS011;58088;51.186;17.130;2023-02-01T16:49:31;3.10;;;0.90;;
70532;SDS011;58088;51.186;17.130;2023-02-01T16:51:58;5.20;;;2.30;;
70532;SDS011;58088;51.186;17.130;2023-02-01T16:54:27;7.70;;;1.90;;
70532;SDS011;58088;51.186;17.130;2023-02-01T16:56:54;5.80;;;1.60;;
70532;SDS011;58088;51.186;17.130;2023-02-01T16:59:20;7.30;;;2.80;;
70532;SDS011;58088;51.186;17.130;2023-02-01T17:01:46;4.70;;;1.30;;
70532;SDS011;58088;51.186;17.130;2023-02-01T17:04:12;5.10;;;1.20;;
70532;SDS011;58088;51.186;17.130;2023-02-01T17:06:40;5.40;;;1.20;;
70532;SDS011;58088;51.186;17.130;2023-02-01T17:09:08;5.10;;;1.40;;
70532;SDS011;58088;51.186;17.130;2023-02-01T17:11:36;7.20;;;2.50;;
70532;SDS011;58088;51.186;17.130;2023-02-01T17:14:15;5.70;;;1.80;;
70532;SDS011;58088;51.186;17.130;2023-02-01T17:16:45;7.00;;;1.70;;
70532;SDS011;58088;51.186;17.130;2023-02-01T17:19:16;6.50;;;2.60;;
70532;SDS011;58088;51.186;17.130;2023-02-01T17:21:50;7.10;;;1.90;;